sensor_id;sensor_type;location;lat;lon;timestamp;P1;durP1;ratioP1;P2;durP2;ratioP2
36745;SDS011;22715;52.182;21.206;2023-05-27T00:01:41;10.90;;;4.15;;
36745;SDS011;22715;52.182;21.206;2023-05-27T00:04:07;15.45;;;4.20;;
36745;SDS011;22715;52.182;21.206;2023-05-27T00:06:32;13.18;;;4.15;;
36745;SDS011;22715;52.182;21.206;2023-05-27T00:08:57;13.00;;;3.50;;
36745;SDS011;22715;52.182;21.206;2023-05-27T00:11:23;13.00;;;3.67;;
36745;SDS011;22715;52.182;21.206;2023-05-27T00:13:49;9.85;;;3.53;;
36745;SDS011;22715;52.182;21.206;2023-05-27T00:16:14;11.68;;;4.18;;
36745;SDS011;22715;52.182;21.206;2023-05-27T00:18:47;16.90;;;3.70;;
36745;SDS011;22715;52.182;21.206;2023-05-27T00:21:18;13.32;;;3.58;;
36745;SDS011;22715;52.182;21.206;2023-05-27T00:23:46;6.63;;;3.75;;
36745;SDS011;22715;52.182;21.206;2023-05-27T00:26:13;11.63;;;3.95;;
36745;SDS011;22715;52.182;21.206;2023-05-27T00:28:44;11.30;;;3.80;;
36745;SDS011;22715;52.182;21.206;2023-05-27T00:31:09;11.75;;;3.17;;
36745;SDS011;22715;52.182;21.206;2023-05-27T00:33:35;13.63;;;3.45;;
36745;SDS011;22715;52.182;21.206;2023-05-27T00:36:00;7.63;;;2.95;;
36745;SDS011;22715;52.182;21.206;2023-05-27T00:38:25;11.05;;;3.70;;
36745;SDS011;22715;52.182;21.206;2023-05-27T00:40:57;9.88;;;4.43;;
36745;SDS011;22715;52.182;21.206;2023-05-27T00:43:25;12.98;;;4.47;;
36745;SDS011;22715;52.182;21.206;2023-05-27T00:45:50;11.05;;;4.40;;
36745;SDS011;22715;52.182;21.206;2023-05-27T00:48:15;11.50;;;3.58;;
36745;SDS011;22715;52.182;21.206;2023-05-27T00:50:41;8.57;;;3.15;;
36745;SDS011;22715;52.182;21.206;2023-05-27T00:53:06;9.38;;;4.50;;
36745;SDS011;22715;52.182;21.206;2023-05-27T00:55:32;11.10;;;3.40;;
36745;SDS011;22715;52.182;21.206;2023-05-27T00:57:58;11.95;;;4.80;;
36745;SDS011;22715;52.182;21.206;2023-05-27T01:00:32;11.25;;;3.42;;
36745;SDS011;22715;52.182;21.206;2023-05-27T01:02:57;11.82;;;3.63;;
36745;SDS011;22715;52.182;21.206;2023-05-27T01:05:23;9.15;;;3.78;;
36745;SDS011;22715;52.182;21.206;2023-05-27T01:08:08;11.23;;;4.10;;
36745;SDS011;22715;52.182;21.206;2023-05-27T01:13:50;12.38;;;3.72;;
36745;SDS011;22715;52.182;21.206;2023-05-27T01:15:47;9.10;;;3.38;;
36745;SDS011;22715;52.182;21.206;2023-05-27T01:18:15;10.07;;;3.58;;
36745;SDS011;22715;52.182;21.206;2023-05-27T01:20:41;9.82;;;3.70;;
36745;SDS011;22715;52.182;21.206;2023-05-27T01:23:08;10.00;;;4.65;;
36745;SDS011;22715;52.182;21.206;2023-05-27T01:25:34;10.60;;;4.10;;
36745;SDS011;22715;52.182;21.206;2023-05-27T01:27:59;8.70;;;3.03;;
36745;SDS011;22715;52.182;21.206;2023-05-27T01:30:24;9.48;;;4.00;;
36745;SDS011;22715;52.182;21.206;2023-05-27T01:33:03;5.75;;;3.50;;
36745;SDS011;22715;52.182;21.206;2023-05-27T01:35:31;10.18;;;3.63;;
36745;SDS011;22715;52.182;21.206;2023-05-27T01:38:01;9.77;;;3.45;;
36745;SDS011;22715;52.182;21.206;2023-05-27T01:40:30;11.70;;;3.97;;
36745;SDS011;22715;52.182;21.206;2023-05-27T01:42:56;12.10;;;3.92;;
36745;SDS011;22715;52.182;21.206;2023-05-27T01:45:21;7.60;;;3.45;;
36745;SDS011;22715;52.182;21.206;2023-05-27T01:47:47;10.35;;;3.53;;
36745;SDS011;22715;52.182;21.206;2023-05-27T01:50:12;7.43;;;3.00;;
36745;SDS011;22715;52.182;21.206;2023-05-27T01:52:37;10.93;;;3.58;;
36745;SDS011;22715;52.182;21.206;2023-05-27T01:55:06;8.63;;;3.70;;
36745;SDS011;22715;52.182;21.206;2023-05-27T01:57:31;13.35;;;3.33;;
36745;SDS011;22715;52.182;21.206;2023-05-27T01:59:56;9.55;;;4.07;;
36745;SDS011;22715;52.182;21.206;2023-05-27T02:02:22;14.98;;;3.17;;
36745;SDS011;22715;52.182;21.206;2023-05-27T02:04:47;11.77;;;3.80;;
36745;SDS011;22715;52.182;21.206;2023-05-27T02:07:13;9.95;;;4.13;;
36745;SDS011;22715;52.182;21.206;2023-05-27T02:09:41;17.23;;;4.80;;
36745;SDS011;22715;52.182;21.206;2023-05-27T02:12:07;8.93;;;3.63;;
36745;SDS011;22715;52.182;21.206;2023-05-27T02:17:03;9.23;;;3.40;;
36745;SDS011;22715;52.182;21.206;2023-05-27T02:19:29;11.70;;;3.70;;
36745;SDS011;22715;52.182;21.206;2023-05-27T02:21:54;16.88;;;4.00;;
36745;SDS011;22715;52.182;21.206;2023-05-27T02:24:24;8.10;;;3.30;;
36745;SDS011;22715;52.182;21.206;2023-05-27T02:26:49;9.73;;;3.95;;
36745;SDS011;22715;52.182;21.206;2023-05-27T02:29:15;9.30;;;4.03;;
36745;SDS011;22715;52.182;21.206;2023-05-27T02:31:40;14.80;;;4.10;;
36745;SDS011;22715;52.182;21.206;2023-05-27T02:34:05;7.47;;;4.13;;
36745;SDS011;22715;52.182;21.206;2023-05-27T02:36:33;12.80;;;4.38;;
36745;SDS011;22715;52.182;21.206;2023-05-27T02:39:17;9.30;;;3.47;;
36745;SDS011;22715;52.182;21.206;2023-05-27T02:41:43;7.68;;;3.60;;
36745;SDS011;22715;52.182;21.206;2023-05-27T02:44:08;12.65;;;3.55;;
36745;SDS011;22715;52.182;21.206;2023-05-27T02:46:33;9.95;;;3.75;;
36745;SDS011;22715;52.182;21.206;2023-05-27T02:48:59;10.20;;;3.13;;
36745;SDS011;22715;52.182;21.206;2023-05-27T02:51:24;7.07;;;3.67;;
36745;SDS011;22715;52.182;21.206;2023-05-27T02:53:50;12.98;;;4.20;;
36745;SDS011;22715;52.182;21.206;2023-05-27T02:56:15;5.22;;;3.15;;
36745;SDS011;22715;52.182;21.206;2023-05-27T02:58:43;13.70;;;4.38;;
36745;SDS011;22715;52.182;21.206;2023-05-27T03:01:11;7.45;;;3.13;;
36745;SDS011;22715;52.182;21.206;2023-05-27T03:03:43;12.75;;;4.32;;
36745;SDS011;22715;52.182;21.206;2023-05-27T03:06:08;12.30;;;2.92;;
36745;SDS011;22715;52.182;21.206;2023-05-27T03:08:33;13.23;;;4.25;;
36745;SDS011;22715;52.182;21.206;2023-05-27T03:10:59;8.73;;;3.15;;
36745;SDS011;22715;52.182;21.206;2023-05-27T03:13:24;9.98;;;3.58;;
36745;SDS011;22715;52.182;21.206;2023-05-27T03:15:50;7.43;;;3.78;;
36745;SDS011;22715;52.182;21.206;2023-05-27T03:18:17;7.00;;;3.35;;
36745;SDS011;22715;52.182;21.206;2023-05-27T03:20:43;9.77;;;4.18;;
36745;SDS011;22715;52.182;21.206;2023-05-27T03:23:08;9.30;;;3.60;;
36745;SDS011;22715;52.182;21.206;2023-05-27T03:25:37;12.02;;;3.55;;
36745;SDS011;22715;52.182;21.206;2023-05-27T03:28:02;11.30;;;3.97;;
36745;SDS011;22715;52.182;21.206;2023-05-27T03:30:27;9.80;;;3.30;;
36745;SDS011;22715;52.182;21.206;2023-05-27T03:35:37;10.23;;;3.15;;
36745;SDS011;22715;52.182;21.206;2023-05-27T03:38:04;11.80;;;3.95;;
36745;SDS011;22715;52.182;21.206;2023-05-27T03:40:29;10.20;;;3.05;;
36745;SDS011;22715;52.182;21.206;2023-05-27T03:42:55;9.35;;;4.18;;
36745;SDS011;22715;52.182;21.206;2023-05-27T03:45:20;12.70;;;3.70;;
36745;SDS011;22715;52.182;21.206;2023-05-27T03:47:46;10.32;;;3.75;;
36745;SDS011;22715;52.182;21.206;2023-05-27T03:50:11;12.73;;;4.15;;
36745;SDS011;22715;52.182;21.206;2023-05-27T03:52:36;10.32;;;3.42;;
36745;SDS011;22715;52.182;21.206;2023-05-27T03:55:02;7.25;;;3.78;;
36745;SDS011;22715;52.182;21.206;2023-05-27T03:57:27;13.77;;;3.97;;
36745;SDS011;22715;52.182;21.206;2023-05-27T03:59:52;9.50;;;4.60;;
36745;SDS011;22715;52.182;21.206;2023-05-27T04:02:17;15.52;;;3.92;;
36745;SDS011;22715;52.182;21.206;2023-05-27T04:04:43;12.27;;;3.72;;
36745;SDS011;22715;52.182;21.206;2023-05-27T04:07:09;11.75;;;3.63;;
36745;SDS011;22715;52.182;21.206;2023-05-27T04:09:34;10.82;;;4.10;;
36745;SDS011;22715;52.182;21.206;2023-05-27T04:11:59;9.25;;;3.65;;
36745;SDS011;22715;52.182;21.206;2023-05-27T04:14:25;10.02;;;3.25;;
36745;SDS011;22715;52.182;21.206;2023-05-27T04:16:50;10.82;;;4.20;;
36745;SDS011;22715;52.182;21.206;2023-05-27T04:19:16;9.30;;;3.97;;
36745;SDS011;22715;52.182;21.206;2023-05-27T04:21:41;10.60;;;3.60;;
36745;SDS011;22715;52.182;21.206;2023-05-27T04:24:06;11.80;;;3.40;;
36745;SDS011;22715;52.182;21.206;2023-05-27T04:26:32;9.68;;;3.22;;
36745;SDS011;22715;52.182;21.206;2023-05-27T04:28:58;13.07;;;3.20;;
36745;SDS011;22715;52.182;21.206;2023-05-27T04:31:29;10.20;;;3.38;;
36745;SDS011;22715;52.182;21.206;2023-05-27T04:33:55;12.98;;;4.90;;
36745;SDS011;22715;52.182;21.206;2023-05-27T04:36:20;14.88;;;3.80;;
36745;SDS011;22715;52.182;21.206;2023-05-27T04:38:50;10.88;;;2.67;;
36745;SDS011;22715;52.182;21.206;2023-05-27T04:41:16;11.73;;;3.83;;
36745;SDS011;22715;52.182;21.206;2023-05-27T04:43:45;7.40;;;3.70;;
36745;SDS011;22715;52.182;21.206;2023-05-27T04:46:10;10.73;;;3.03;;
36745;SDS011;22715;52.182;21.206;2023-05-27T04:51:25;14.10;;;3.67;;
36745;SDS011;22715;52.182;21.206;2023-05-27T04:53:50;10.30;;;3.70;;
36745;SDS011;22715;52.182;21.206;2023-05-27T04:56:28;9.45;;;2.80;;
36745;SDS011;22715;52.182;21.206;2023-05-27T04:58:56;7.13;;;3.00;;
36745;SDS011;22715;52.182;21.206;2023-05-27T05:04:13;5.38;;;2.50;;
36745;SDS011;22715;52.182;21.206;2023-05-27T05:06:39;9.63;;;3.38;;
36745;SDS011;22715;52.182;21.206;2023-05-27T05:09:17;5.20;;;2.45;;
36745;SDS011;22715;52.182;21.206;2023-05-27T05:11:44;6.43;;;2.28;;
36745;SDS011;22715;52.182;21.206;2023-05-27T05:16:46;6.53;;;2.65;;
36745;SDS011;22715;52.182;21.206;2023-05-27T05:19:19;5.53;;;2.83;;
36745;SDS011;22715;52.182;21.206;2023-05-27T05:21:54;7.93;;;3.03;;
36745;SDS011;22715;52.182;21.206;2023-05-27T05:24:31;6.68;;;2.72;;
36745;SDS011;22715;52.182;21.206;2023-05-27T05:26:57;6.60;;;2.50;;
36745;SDS011;22715;52.182;21.206;2023-05-27T05:29:22;6.07;;;3.28;;
36745;SDS011;22715;52.182;21.206;2023-05-27T05:31:47;8.80;;;3.17;;
36745;SDS011;22715;52.182;21.206;2023-05-27T05:34:13;8.30;;;2.25;;
36745;SDS011;22715;52.182;21.206;2023-05-27T05:36:55;5.90;;;2.63;;
36745;SDS011;22715;52.182;21.206;2023-05-27T05:39:20;7.35;;;2.30;;
36745;SDS011;22715;52.182;21.206;2023-05-27T05:41:45;6.68;;;2.70;;
36745;SDS011;22715;52.182;21.206;2023-05-27T05:44:11;6.63;;;2.70;;
36745;SDS011;22715;52.182;21.206;2023-05-27T05:46:36;6.20;;;2.53;;
36745;SDS011;22715;52.182;21.206;2023-05-27T05:49:02;5.05;;;2.60;;
36745;SDS011;22715;52.182;21.206;2023-05-27T05:51:32;10.43;;;4.53;;
36745;SDS011;22715;52.182;21.206;2023-05-27T05:54:06;9.27;;;2.50;;
36745;SDS011;22715;52.182;21.206;2023-05-27T05:56:31;9.25;;;3.15;;
36745;SDS011;22715;52.182;21.206;2023-05-27T05:59:00;6.53;;;2.10;;
36745;SDS011;22715;52.182;21.206;2023-05-27T06:01:26;5.53;;;3.58;;
36745;SDS011;22715;52.182;21.206;2023-05-27T06:03:55;3.83;;;2.22;;
36745;SDS011;22715;52.182;21.206;2023-05-27T06:06:21;10.32;;;2.22;;
36745;SDS011;22715;52.182;21.206;2023-05-27T06:08:50;5.50;;;2.83;;
36745;SDS011;22715;52.182;21.206;2023-05-27T06:11:15;4.00;;;2.28;;
36745;SDS011;22715;52.182;21.206;2023-05-27T06:13:42;5.72;;;1.75;;
36745;SDS011;22715;52.182;21.206;2023-05-27T06:16:10;11.63;;;2.75;;
36745;SDS011;22715;52.182;21.206;2023-05-27T06:18:36;7.10;;;2.35;;
36745;SDS011;22715;52.182;21.206;2023-05-27T06:21:02;5.60;;;2.42;;
36745;SDS011;22715;52.182;21.206;2023-05-27T06:23:28;5.47;;;2.10;;
36745;SDS011;22715;52.182;21.206;2023-05-27T06:25:53;4.00;;;1.88;;
36745;SDS011;22715;52.182;21.206;2023-05-27T06:28:23;6.05;;;1.90;;
36745;SDS011;22715;52.182;21.206;2023-05-27T06:33:33;4.55;;;2.08;;
36745;SDS011;22715;52.182;21.206;2023-05-27T06:35:59;3.83;;;1.40;;
36745;SDS011;22715;52.182;21.206;2023-05-27T06:38:25;8.23;;;1.75;;
36745;SDS011;22715;52.182;21.206;2023-05-27T06:40:52;7.00;;;2.50;;
36745;SDS011;22715;52.182;21.206;2023-05-27T06:43:17;3.58;;;1.98;;
36745;SDS011;22715;52.182;21.206;2023-05-27T06:45:52;4.40;;;1.75;;
36745;SDS011;22715;52.182;21.206;2023-05-27T06:48:33;3.30;;;1.73;;
36745;SDS011;22715;52.182;21.206;2023-05-27T06:50:59;4.00;;;1.50;;
36745;SDS011;22715;52.182;21.206;2023-05-27T06:53:24;4.60;;;1.92;;
36745;SDS011;22715;52.182;21.206;2023-05-27T06:55:59;6.68;;;2.20;;
36745;SDS011;22715;52.182;21.206;2023-05-27T06:58:27;5.53;;;1.80;;
36745;SDS011;22715;52.182;21.206;2023-05-27T07:00:54;3.20;;;2.03;;
36745;SDS011;22715;52.182;21.206;2023-05-27T07:03:20;3.75;;;1.45;;
36745;SDS011;22715;52.182;21.206;2023-05-27T07:05:46;4.18;;;1.70;;
36745;SDS011;22715;52.182;21.206;2023-05-27T07:08:14;2.08;;;1.27;;
36745;SDS011;22715;52.182;21.206;2023-05-27T07:10:39;4.47;;;1.42;;
36745;SDS011;22715;52.182;21.206;2023-05-27T07:13:05;5.65;;;1.77;;
36745;SDS011;22715;52.182;21.206;2023-05-27T07:15:34;2.83;;;1.75;;
36745;SDS011;22715;52.182;21.206;2023-05-27T07:18:13;7.10;;;2.00;;
36745;SDS011;22715;52.182;21.206;2023-05-27T07:20:38;3.42;;;1.52;;
36745;SDS011;22715;52.182;21.206;2023-05-27T07:23:08;2.97;;;1.40;;
36745;SDS011;22715;52.182;21.206;2023-05-27T07:25:34;3.87;;;1.70;;
36745;SDS011;22715;52.182;21.206;2023-05-27T07:27:59;5.13;;;1.70;;
36745;SDS011;22715;52.182;21.206;2023-05-27T07:30:34;2.90;;;1.23;;
36745;SDS011;22715;52.182;21.206;2023-05-27T07:33:00;2.97;;;1.67;;
36745;SDS011;22715;52.182;21.206;2023-05-27T07:35:35;2.95;;;1.48;;
36745;SDS011;22715;52.182;21.206;2023-05-27T07:38:00;1.90;;;1.20;;
36745;SDS011;22715;52.182;21.206;2023-05-27T07:40:35;2.60;;;1.70;;
36745;SDS011;22715;52.182;21.206;2023-05-27T07:43:00;2.70;;;1.48;;
36745;SDS011;22715;52.182;21.206;2023-05-27T07:45:26;3.90;;;1.27;;
36745;SDS011;22715;52.182;21.206;2023-05-27T07:53:17;7.10;;;1.35;;
36745;SDS011;22715;52.182;21.206;2023-05-27T07:55:47;3.10;;;1.38;;
36745;SDS011;22715;52.182;21.206;2023-05-27T07:58:25;4.38;;;1.50;;
36745;SDS011;22715;52.182;21.206;2023-05-27T08:01:02;1.60;;;1.17;;
36745;SDS011;22715;52.182;21.206;2023-05-27T08:03:29;7.30;;;1.45;;
36745;SDS011;22715;52.182;21.206;2023-05-27T08:06:04;3.22;;;1.42;;
36745;SDS011;22715;52.182;21.206;2023-05-27T08:23:58;4.78;;;1.38;;
36745;SDS011;22715;52.182;21.206;2023-05-27T08:26:25;3.72;;;1.23;;
36745;SDS011;22715;52.182;21.206;2023-05-27T08:28:51;3.03;;;1.45;;
36745;SDS011;22715;52.182;21.206;2023-05-27T08:31:18;2.95;;;1.65;;
36745;SDS011;22715;52.182;21.206;2023-05-27T08:33:44;1.80;;;1.13;;
36745;SDS011;22715;52.182;21.206;2023-05-27T08:36:10;1.13;;;0.98;;
36745;SDS011;22715;52.182;21.206;2023-05-27T08:38:36;3.45;;;1.20;;
36745;SDS011;22715;52.182;21.206;2023-05-27T08:41:02;8.30;;;1.90;;
36745;SDS011;22715;52.182;21.206;2023-05-27T08:43:27;3.45;;;1.20;;
36745;SDS011;22715;52.182;21.206;2023-05-27T08:48:53;3.95;;;1.15;;
36745;SDS011;22715;52.182;21.206;2023-05-27T08:54:32;1.20;;;1.05;;
36745;SDS011;22715;52.182;21.206;2023-05-27T08:57:09;1.55;;;1.10;;
36745;SDS011;22715;52.182;21.206;2023-05-27T08:59:36;1.92;;;1.10;;
36745;SDS011;22715;52.182;21.206;2023-05-27T09:02:03;2.90;;;1.17;;
36745;SDS011;22715;52.182;21.206;2023-05-27T09:05:02;1.63;;;0.90;;
36745;SDS011;22715;52.182;21.206;2023-05-27T09:07:43;1.98;;;1.10;;
36745;SDS011;22715;52.182;21.206;2023-05-27T09:10:18;4.55;;;1.30;;
36745;SDS011;22715;52.182;21.206;2023-05-27T09:12:44;3.05;;;1.25;;
36745;SDS011;22715;52.182;21.206;2023-05-27T09:15:10;1.75;;;0.75;;
36745;SDS011;22715;52.182;21.206;2023-05-27T09:17:43;3.40;;;1.88;;
36745;SDS011;22715;52.182;21.206;2023-05-27T09:20:08;5.35;;;1.38;;
36745;SDS011;22715;52.182;21.206;2023-05-27T09:22:35;2.30;;;1.65;;
36745;SDS011;22715;52.182;21.206;2023-05-27T09:25:09;4.57;;;1.70;;
36745;SDS011;22715;52.182;21.206;2023-05-27T09:27:35;6.00;;;0.70;;
36745;SDS011;22715;52.182;21.206;2023-05-27T09:30:07;2.33;;;0.90;;
36745;SDS011;22715;52.182;21.206;2023-05-27T09:32:33;1.15;;;0.80;;
36745;SDS011;22715;52.182;21.206;2023-05-27T09:34:59;2.83;;;0.88;;
36745;SDS011;22715;52.182;21.206;2023-05-27T09:37:29;1.45;;;0.77;;
36745;SDS011;22715;52.182;21.206;2023-05-27T09:40:15;1.70;;;0.75;;
36745;SDS011;22715;52.182;21.206;2023-05-27T09:45:08;2.60;;;0.60;;
36745;SDS011;22715;52.182;21.206;2023-05-27T09:47:37;3.28;;;1.00;;
36745;SDS011;22715;52.182;21.206;2023-05-27T09:50:10;1.05;;;0.90;;
36745;SDS011;22715;52.182;21.206;2023-05-27T09:52:39;2.55;;;1.05;;
36745;SDS011;22715;52.182;21.206;2023-05-27T09:55:06;4.20;;;1.20;;
36745;SDS011;22715;52.182;21.206;2023-05-27T09:57:32;4.18;;;1.30;;
36745;SDS011;22715;52.182;21.206;2023-05-27T09:59:59;1.55;;;0.70;;
36745;SDS011;22715;52.182;21.206;2023-05-27T10:02:24;4.68;;;0.93;;
36745;SDS011;22715;52.182;21.206;2023-05-27T10:04:50;2.63;;;0.70;;
36745;SDS011;22715;52.182;21.206;2023-05-27T10:07:16;4.45;;;0.80;;
36745;SDS011;22715;52.182;21.206;2023-05-27T10:09:44;3.10;;;1.27;;
36745;SDS011;22715;52.182;21.206;2023-05-27T10:12:09;3.25;;;1.38;;
36745;SDS011;22715;52.182;21.206;2023-05-27T10:14:36;1.48;;;0.90;;
36745;SDS011;22715;52.182;21.206;2023-05-27T10:17:05;3.85;;;1.13;;
36745;SDS011;22715;52.182;21.206;2023-05-27T10:19:30;1.45;;;0.60;;
36745;SDS011;22715;52.182;21.206;2023-05-27T10:21:55;1.52;;;0.82;;
36745;SDS011;22715;52.182;21.206;2023-05-27T10:24:30;1.63;;;0.90;;
36745;SDS011;22715;52.182;21.206;2023-05-27T10:26:59;2.28;;;0.90;;
36745;SDS011;22715;52.182;21.206;2023-05-27T10:29:34;3.33;;;1.40;;
36745;SDS011;22715;52.182;21.206;2023-05-27T10:32:22;2.05;;;1.00;;
36745;SDS011;22715;52.182;21.206;2023-05-27T10:34:50;2.35;;;1.10;;
36745;SDS011;22715;52.182;21.206;2023-05-27T10:40:41;0.68;;;0.68;;
36745;SDS011;22715;52.182;21.206;2023-05-27T10:43:06;1.48;;;0.90;;
36745;SDS011;22715;52.182;21.206;2023-05-27T10:49:09;1.88;;;1.10;;
36745;SDS011;22715;52.182;21.206;2023-05-27T10:51:34;5.57;;;1.23;;
36745;SDS011;22715;52.182;21.206;2023-05-27T10:54:02;2.30;;;1.42;;
36745;SDS011;22715;52.182;21.206;2023-05-27T10:56:29;3.72;;;1.67;;
36745;SDS011;22715;52.182;21.206;2023-05-27T10:58:54;3.25;;;1.45;;
36745;SDS011;22715;52.182;21.206;2023-05-27T11:10:27;3.38;;;1.05;;
36745;SDS011;22715;52.182;21.206;2023-05-27T11:22:02;2.90;;;1.77;;
36745;SDS011;22715;52.182;21.206;2023-05-27T11:24:39;3.10;;;1.02;;
36745;SDS011;22715;52.182;21.206;2023-05-27T11:30:47;5.68;;;1.23;;
36745;SDS011;22715;52.182;21.206;2023-05-27T11:33:29;2.65;;;1.42;;
36745;SDS011;22715;52.182;21.206;2023-05-27T11:36:16;0.80;;;0.80;;
36745;SDS011;22715;52.182;21.206;2023-05-27T11:42:04;1.20;;;0.70;;
36745;SDS011;22715;52.182;21.206;2023-05-27T11:47:05;2.22;;;1.13;;
36745;SDS011;22715;52.182;21.206;2023-05-27T11:49:30;1.58;;;1.10;;
36745;SDS011;22715;52.182;21.206;2023-05-27T11:51:56;3.13;;;1.00;;
36745;SDS011;22715;52.182;21.206;2023-05-27T11:54:22;3.50;;;0.93;;
36745;SDS011;22715;52.182;21.206;2023-05-27T11:56:48;21.02;;;1.85;;
36745;SDS011;22715;52.182;21.206;2023-05-27T12:02:19;0.73;;;0.73;;
36745;SDS011;22715;52.182;21.206;2023-05-27T12:04:47;2.85;;;0.80;;
36745;SDS011;22715;52.182;21.206;2023-05-27T12:07:13;1.10;;;0.70;;
36745;SDS011;22715;52.182;21.206;2023-05-27T12:09:39;1.27;;;0.75;;
36745;SDS011;22715;52.182;21.206;2023-05-27T12:12:06;1.70;;;0.70;;
36745;SDS011;22715;52.182;21.206;2023-05-27T12:14:42;2.78;;;1.02;;
36745;SDS011;22715;52.182;21.206;2023-05-27T12:17:17;1.42;;;1.33;;
36745;SDS011;22715;52.182;21.206;2023-05-27T12:19:42;5.93;;;0.77;;
36745;SDS011;22715;52.182;21.206;2023-05-27T12:22:10;2.22;;;1.10;;
36745;SDS011;22715;52.182;21.206;2023-05-27T12:24:36;1.85;;;1.08;;
36745;SDS011;22715;52.182;21.206;2023-05-27T12:27:07;6.75;;;0.80;;
36745;SDS011;22715;52.182;21.206;2023-05-27T12:42:33;4.57;;;0.77;;
36745;SDS011;22715;52.182;21.206;2023-05-27T12:44:58;1.17;;;0.70;;
36745;SDS011;22715;52.182;21.206;2023-05-27T12:47:26;1.77;;;1.25;;
36745;SDS011;22715;52.182;21.206;2023-05-27T12:49:52;2.78;;;0.60;;
36745;SDS011;22715;52.182;21.206;2023-05-27T12:52:17;1.25;;;0.98;;
36745;SDS011;22715;52.182;21.206;2023-05-27T12:54:42;2.55;;;0.70;;
36745;SDS011;22715;52.182;21.206;2023-05-27T12:57:11;3.63;;;0.98;;
36745;SDS011;22715;52.182;21.206;2023-05-27T12:59:36;0.93;;;0.85;;
36745;SDS011;22715;52.182;21.206;2023-05-27T13:02:02;3.47;;;1.92;;
36745;SDS011;22715;52.182;21.206;2023-05-27T13:04:36;2.83;;;1.25;;
36745;SDS011;22715;52.182;21.206;2023-05-27T13:07:01;1.80;;;0.73;;
36745;SDS011;22715;52.182;21.206;2023-05-27T13:09:32;2.10;;;0.68;;
36745;SDS011;22715;52.182;21.206;2023-05-27T13:12:01;2.78;;;1.42;;
36745;SDS011;22715;52.182;21.206;2023-05-27T13:14:27;1.05;;;0.50;;
36745;SDS011;22715;52.182;21.206;2023-05-27T13:16:52;4.78;;;0.80;;
36745;SDS011;22715;52.182;21.206;2023-05-27T13:19:19;1.17;;;0.75;;
36745;SDS011;22715;52.182;21.206;2023-05-27T13:21:44;1.45;;;0.70;;
36745;SDS011;22715;52.182;21.206;2023-05-27T13:24:10;1.83;;;1.38;;
36745;SDS011;22715;52.182;21.206;2023-05-27T13:26:35;0.82;;;0.60;;
36745;SDS011;22715;52.182;21.206;2023-05-27T13:29:14;3.22;;;0.82;;
36745;SDS011;22715;52.182;21.206;2023-05-27T13:31:44;0.80;;;0.68;;
36745;SDS011;22715;52.182;21.206;2023-05-27T13:34:29;2.47;;;0.90;;
36745;SDS011;22715;52.182;21.206;2023-05-27T13:36:55;1.60;;;0.70;;
36745;SDS011;22715;52.182;21.206;2023-05-27T13:39:21;2.60;;;0.60;;
36745;SDS011;22715;52.182;21.206;2023-05-27T13:41:46;2.70;;;1.13;;
36745;SDS011;22715;52.182;21.206;2023-05-27T13:44:12;0.90;;;0.70;;
36745;SDS011;22715;52.182;21.206;2023-05-27T13:46:37;3.88;;;1.30;;
36745;SDS011;22715;52.182;21.206;2023-05-27T13:49:05;1.10;;;0.60;;
36745;SDS011;22715;52.182;21.206;2023-05-27T13:51:31;2.75;;;0.80;;
36745;SDS011;22715;52.182;21.206;2023-05-27T13:53:57;1.70;;;0.95;;
36745;SDS011;22715;52.182;21.206;2023-05-27T13:56:22;1.08;;;0.82;;
36745;SDS011;22715;52.182;21.206;2023-05-27T13:58:51;1.13;;;0.63;;
36745;SDS011;22715;52.182;21.206;2023-05-27T14:01:20;1.70;;;1.38;;
36745;SDS011;22715;52.182;21.206;2023-05-27T14:03:46;4.45;;;0.70;;
36745;SDS011;22715;52.182;21.206;2023-05-27T14:06:11;2.72;;;1.40;;
36745;SDS011;22715;52.182;21.206;2023-05-27T14:08:38;1.35;;;1.10;;
36745;SDS011;22715;52.182;21.206;2023-05-27T14:11:04;2.78;;;0.85;;
36745;SDS011;22715;52.182;21.206;2023-05-27T14:13:29;1.85;;;0.88;;
36745;SDS011;22715;52.182;21.206;2023-05-27T14:15:55;6.47;;;1.02;;
36745;SDS011;22715;52.182;21.206;2023-05-27T14:18:23;1.15;;;0.80;;
36745;SDS011;22715;52.182;21.206;2023-05-27T14:20:49;1.35;;;0.80;;
36745;SDS011;22715;52.182;21.206;2023-05-27T14:23:20;3.67;;;0.98;;
36745;SDS011;22715;52.182;21.206;2023-05-27T14:28:18;3.58;;;1.23;;
36745;SDS011;22715;52.182;21.206;2023-05-27T14:30:44;3.22;;;1.83;;
36745;SDS011;22715;52.182;21.206;2023-05-27T14:33:11;3.45;;;1.00;;
36745;SDS011;22715;52.182;21.206;2023-05-27T14:35:36;0.77;;;0.77;;
36745;SDS011;22715;52.182;21.206;2023-05-27T14:38:03;4.22;;;0.93;;
36745;SDS011;22715;52.182;21.206;2023-05-27T14:40:34;3.22;;;0.85;;
36745;SDS011;22715;52.182;21.206;2023-05-27T14:45:25;2.80;;;0.60;;
36745;SDS011;22715;52.182;21.206;2023-05-27T14:47:51;4.57;;;0.82;;
36745;SDS011;22715;52.182;21.206;2023-05-27T14:50:17;2.88;;;1.02;;
36745;SDS011;22715;52.182;21.206;2023-05-27T14:52:42;1.73;;;0.80;;
36745;SDS011;22715;52.182;21.206;2023-05-27T14:55:08;1.58;;;0.70;;
36745;SDS011;22715;52.182;21.206;2023-05-27T14:57:33;1.40;;;0.77;;
36745;SDS011;22715;52.182;21.206;2023-05-27T15:00:04;2.63;;;0.75;;
36745;SDS011;22715;52.182;21.206;2023-05-27T15:02:30;5.90;;;1.35;;
36745;SDS011;22715;52.182;21.206;2023-05-27T15:04:55;1.35;;;0.98;;
36745;SDS011;22715;52.182;21.206;2023-05-27T15:07:21;4.45;;;1.40;;
36745;SDS011;22715;52.182;21.206;2023-05-27T15:09:48;1.05;;;0.80;;
36745;SDS011;22715;52.182;21.206;2023-05-27T15:12:16;3.30;;;0.82;;
36745;SDS011;22715;52.182;21.206;2023-05-27T15:14:42;0.95;;;0.60;;
36745;SDS011;22715;52.182;21.206;2023-05-27T15:17:08;8.10;;;2.15;;
36745;SDS011;22715;52.182;21.206;2023-05-27T15:19:39;2.60;;;0.85;;
36745;SDS011;22715;52.182;21.206;2023-05-27T15:22:04;3.53;;;1.20;;
36745;SDS011;22715;52.182;21.206;2023-05-27T15:24:31;0.98;;;0.65;;
36745;SDS011;22715;52.182;21.206;2023-05-27T15:26:56;2.22;;;0.80;;
36745;SDS011;22715;52.182;21.206;2023-05-27T15:29:27;1.08;;;0.60;;
36745;SDS011;22715;52.182;21.206;2023-05-27T15:31:53;1.10;;;1.00;;
36745;SDS011;22715;52.182;21.206;2023-05-27T15:34:24;1.35;;;0.70;;
36745;SDS011;22715;52.182;21.206;2023-05-27T15:39:48;2.40;;;0.90;;
36745;SDS011;22715;52.182;21.206;2023-05-27T15:42:16;2.58;;;0.77;;
36745;SDS011;22715;52.182;21.206;2023-05-27T15:44:42;5.07;;;1.00;;
36745;SDS011;22715;52.182;21.206;2023-05-27T15:47:07;6.25;;;0.73;;
36745;SDS011;22715;52.182;21.206;2023-05-27T15:49:32;0.85;;;0.85;;
36745;SDS011;22715;52.182;21.206;2023-05-27T15:51:59;2.08;;;0.70;;
36745;SDS011;22715;52.182;21.206;2023-05-27T15:54:24;2.13;;;0.50;;
36745;SDS011;22715;52.182;21.206;2023-05-27T15:56:49;3.83;;;0.80;;
36745;SDS011;22715;52.182;21.206;2023-05-27T15:59:15;3.13;;;0.82;;
36745;SDS011;22715;52.182;21.206;2023-05-27T16:01:40;1.33;;;0.82;;
36745;SDS011;22715;52.182;21.206;2023-05-27T16:04:05;3.75;;;0.90;;
36745;SDS011;22715;52.182;21.206;2023-05-27T16:06:40;1.75;;;0.70;;
36745;SDS011;22715;52.182;21.206;2023-05-27T16:09:05;2.10;;;0.60;;
36745;SDS011;22715;52.182;21.206;2023-05-27T16:11:31;1.88;;;1.05;;
36745;SDS011;22715;52.182;21.206;2023-05-27T16:13:56;0.90;;;0.68;;
36745;SDS011;22715;52.182;21.206;2023-05-27T16:16:22;2.15;;;0.60;;
36745;SDS011;22715;52.182;21.206;2023-05-27T16:18:47;2.00;;;1.02;;
36745;SDS011;22715;52.182;21.206;2023-05-27T16:21:13;0.93;;;0.73;;